createdAt,value
2023-11-14T12:44:30.824Z,25.10
2023-11-14T12:49:33.528Z,24.83
2023-11-14T12:54:35.462Z,24.60
2023-11-14T12:59:37.187Z,24.90
2023-11-14T13:04:39.323Z,24.17
2023-11-14T13:09:41.356Z,24.20
2023-11-14T13:14:43.383Z,24.17
2023-11-14T13:19:45.963Z,24.23
2023-11-14T13:24:48.025Z,25.60
2023-11-14T13:29:49.694Z,25.03
2023-11-14T13:34:53.305Z,25.43
2023-11-14T13:40:07.471Z,24.53
2023-11-14T13:45:10.631Z,24.33
2023-11-14T13:50:14.612Z,24.90
2023-11-14T13:55:19.298Z,24.40
2023-11-14T14:00:23.770Z,24.50
2023-11-14T14:05:25.846Z,24.33
2023-11-14T14:10:28.265Z,23.53
2023-11-14T14:15:30.257Z,24.53
2023-11-14T14:20:32.434Z,24.57
2023-11-14T14:25:35.599Z,23.70
2023-11-14T14:30:37.359Z,24.03
2023-11-14T14:35:39.090Z,24.47
2023-11-14T14:40:41.430Z,24.27
2023-11-14T14:45:47.918Z,24.23
2023-11-14T14:50:51.943Z,24.73
2023-11-14T14:55:54.169Z,25.40
2023-11-14T15:00:56.022Z,24.83
2023-11-14T15:06:01.100Z,24.43
2023-11-14T15:11:05.263Z,24.30
2023-11-14T15:16:09.373Z,22.87
2023-11-14T15:21:12.131Z,22.37
2023-11-14T15:26:14.221Z,23.40
2023-11-14T15:31:16.034Z,22.70
2023-11-14T15:36:19.958Z,22.10
2023-11-14T15:41:22.383Z,22.20
2023-11-14T15:46:25.662Z,21.67
2023-11-14T15:51:27.921Z,22.53
2023-11-14T15:56:29.663Z,22.27
2023-11-14T16:01:31.488Z,22.10
2023-11-14T16:06:33.169Z,21.20
2023-11-14T16:11:34.868Z,21.43
2023-11-14T16:16:36.801Z,22.50
2023-11-14T16:21:38.985Z,21.97
2023-11-14T16:26:40.789Z,22.33
2023-11-14T16:31:44.284Z,22.37
2023-11-14T16:36:46.001Z,22.57
2023-11-14T16:41:47.885Z,22.27
2023-11-14T16:46:49.679Z,22.13
2023-11-14T16:51:54.304Z,21.70
2023-11-14T16:56:56.380Z,21.80
2023-11-14T17:01:58.919Z,22.00
2023-11-14T17:07:02.480Z,19.83
2023-11-14T17:12:04.651Z,21.10
2023-11-14T17:17:07.633Z,20.80
2023-11-14T17:22:10.395Z,20.83
2023-11-14T17:27:14.193Z,22.65
2023-11-14T17:32:16.231Z,21.00
2023-11-14T17:37:17.939Z,21.13
2023-11-14T17:42:19.895Z,20.77
2023-11-14T17:47:22.938Z,19.70
2023-11-14T17:52:26.417Z,21.45
2023-11-14T17:57:30.572Z,20.30
2023-11-14T18:02:35.626Z,20.63
2023-11-14T18:07:38.782Z,21.63
2023-11-14T18:12:41.208Z,21.70
2023-11-14T18:17:45.222Z,21.00
2023-11-14T18:22:48.196Z,20.63
2023-11-14T18:27:50.305Z,20.43
2023-11-14T18:32:52.065Z,21.93
2023-11-14T18:37:56.435Z,20.80
2023-11-14T18:42:58.110Z,20.10
2023-11-14T18:48:00.702Z,20.43
2023-11-14T18:53:02.463Z,20.70
2023-11-14T18:58:04.271Z,20.20
2023-11-14T19:03:08.309Z,19.57
2023-11-14T19:08:10.941Z,20.67
2023-11-14T19:13:12.747Z,20.90
2023-11-14T19:18:18.954Z,21.07
2023-11-14T19:23:41.813Z,22.03
2023-11-14T19:28:46.159Z,22.37
2023-11-14T19:33:49.952Z,21.60
2023-11-14T19:38:52.573Z,21.70
2023-11-14T19:43:55.358Z,21.80
2023-11-14T19:49:00.675Z,20.90
2023-11-14T19:54:05.119Z,20.97
2023-11-14T19:59:14.956Z,20.90
2023-11-14T20:04:19.064Z,20.67
2023-11-14T20:09:20.874Z,21.30
2023-11-14T20:14:23.128Z,21.17
2023-11-14T20:19:24.852Z,20.37
2023-11-14T20:24:26.501Z,20.80
2023-11-14T20:29:28.690Z,21.13
2023-11-14T20:34:30.405Z,21.10
2023-11-14T20:39:34.151Z,21.10
2023-11-14T20:44:37.337Z,21.17
2023-11-14T20:49:40.272Z,21.50
2023-11-14T20:54:42.537Z,23.23
2023-11-14T20:59:44.828Z,23.30
2023-11-14T21:04:46.619Z,21.80
2023-11-14T21:09:48.308Z,20.57
2023-11-14T21:14:50.911Z,20.20
2023-11-14T21:19:53.322Z,21.03
2023-11-14T21:24:55.621Z,21.83
2023-11-14T21:29:57.494Z,24.87
